Arapahoe, NE

9:34 AM CST on March 02, 2015 (GMT -0600)
Smithfield | Change Station
CLOSE
Current Station
Personal Weather Station
Location: Smithfield, NE
Elevation: 2507 ft
Nearby Weather Stations

Elev 2507 ft 40.63 °N, 99.74 °W | Updated 5 minutes ago

Overcast
Overcast
31.1 °F
Feels Like 21 °F
N
13.0
Wind Variable Wind from SSE

Today
High -- | Low -- °F
--% Chance of Precip.
Yesterday
High -- | Low -- °F
Precip. -- in
7:11 AM 6:32 PM
Waxing Gibbous, 92% visible
Pressure 30.31 in
Visibility 10.0 miles
Clouds Clear
Windchill 21 °F
Dew Point 21 °F
Humidity 67%
Rainfall 0.00 in
Snow Depth Not available.
UV 2 out of 12
Pollen 2.40 out of 12
Air Quality Not available.
Flu Activity Not available.
METAR KHDE 021515Z AUTO 18012KT 10SM CLR M01/M06 A3031 RMK AO2 T10101057

More Conditions Fewer Conditions

Pressure 30.31 in
Visibility 10.0 miles
Clouds Clear
Windchill 21 °F
Dew Point 21 °F
Humidity 67%
Rainfall 0.00 in
Snow Depth Not available.
UV 2 out of 12
Pollen 2.40 out of 12
Air Quality Not available.
Flu Activity Not available.
METAR KHDE 021515Z AUTO 18012KT 10SM CLR M01/M06 A3031 RMK AO2 T10101057

More Conditions Fewer Conditions

10-Day Weather Forecast

Almanac

Astronomy

Mar. 02, 2015 Rise Set
Actual Time
Civil Twilight
Nautical Twilight
Astronomical Twilight
Moon
Length of Visible Light
Length of Day
Tomorrow will be .
, % of the Moon is Illuminated

Today's Extremes

State Highs State Lows

Community

WunderPhotos

Upload Photos

1,801,821 photos uploaded!

WunderBlogs® & News

Nearby

Air Quality

  Air Quality AQ Index Pollutant
Not available.

Snow Depth

Station Depth Elevation

Earthquake Activity

City Distance Mag. Time & Date
Minimum magnitude displayed is 2.5.

Coastal Water Temperatures

Place Temperature

Nearby Weather Stations